Boulder City, Nevada Weather observations

Data are for observation ending at time listed.
 Day   Time    Ave.   Ave.  Ave.  Vector   Max.   Stn.    Total    Solar   Ave.  
  of    of     Air    Rel.  Wind   Wind    Wind   Baro.  Precip.   Rad.    Soil  
Year   Day     Temp.  Hum.  Speed  Dir.    Gust   Pres.                    Temp. 
2016   (PST)    F      %     mph   deg.    mph     mb.     in.     W/m2     F   
------------------------------------------------------------------------------
  37   14:10   59.0    24    4.1   357      9.8   942.9    0.00     507    49.4
  37   14:20   59.3    25    3.7    13      7.6   942.8    0.00     483    49.5
  37   14:30   60.0    24    4.3    11      7.5   942.6    0.00     459    49.5
  37   14:40   60.2    24    4.0     8      8.8   942.5    0.00     432    49.6
  37   14:50   59.8    25    5.2    18     10.4   942.6    0.00     406    49.6
  37   15:00   60.2    24    4.7    12      9.2   942.5    0.00     378    49.7
  37   15:10   59.9    24    5.2    13     13.2   942.6    0.00     350    49.7
  37   15:20   60.0    24    4.1     7      8.1   942.5    0.00     321    49.7
  37   15:30   60.0    24    4.5     1      9.6   942.5    0.00     292    49.7
  37   15:40   59.7    23    5.9     6     12.7   942.4    0.00     261    49.8
  37   15:50   59.6    23    4.4   356     11.5   942.4    0.00     231    49.8
  37   16:00   59.5    23    4.2   350      9.3   942.2    0.00     200    49.8
  37   16:10   59.5    24    3.6     9      6.3   942.1    0.00     171    49.9
  37   16:20   59.2    26    3.5    16      8.0   942.0    0.00     141    49.9
  37   16:30   59.0    26    3.3     9      7.5   942.0    0.00     105    49.9
  37   16:40   58.6    26    2.7   360      4.6   941.9    0.00      68    49.9
  37   16:50   58.1    26    2.6     1      4.5   941.8    0.00      32    49.9
  37   17:00   56.7    28    3.8    14      6.6   941.7    0.00      13    49.9
  37   17:10   56.4    28    4.2    10     11.2   941.6    0.00       9    49.9
  37   17:20   56.0    29    2.8   358      6.1   941.6    0.00       4    49.8
  37   17:30   56.0    29    3.9     6      8.3   941.5    0.00       1    49.8
  37   17:40   55.7    30    2.0   353      4.5   941.5    0.00       0    49.8
  37   17:50   55.1    31    1.5     6      6.4   941.4    0.00       0    49.8
  37   18:00   55.1    31    1.7     1      5.0   941.5    0.00       0    49.8
  37   18:10   54.8    31    2.6    23      5.5   941.4    0.00       0    49.7
  37   18:20   54.7    31    2.2     5      4.5   941.3    0.00       0    49.7
  37   18:30   54.7    31    2.5    10      4.8   941.2    0.00       0    49.7
  37   18:40   55.3    30    2.9     3      8.2   941.2    0.00       0    49.7
  37   18:50   55.6    29    4.3    11      8.6   941.2    0.00       0    49.6
  37   19:00   56.0    28    4.4    12     10.0   941.2    0.00       0    49.6
  37   19:10   55.8    28    3.1     4      6.6   941.3    0.00       0    49.5
  37   19:20   55.5    29    3.3    12      6.9   941.3    0.00       0    49.5
  37   19:30   55.5    29    3.7    13      7.5   941.4    0.00       0    49.4
  37   19:40   54.1    31    2.6    21      4.7   941.4    0.00       0    49.4
  37   19:50   52.7    34    1.2    24      3.1   941.4    0.00       0    49.4
  37   20:00   51.0    37    1.1   190      2.8   941.4    0.00       0    49.3
  37   20:10   49.8    39    2.4   219      3.8   941.3    0.00       0    49.3
  37   20:20   49.7    40    2.9   225      4.2   941.3    0.00       0    49.3
  37   20:30   49.0    41    2.4   230      4.1   941.3    0.00       0    49.2
  37   20:40   48.8    40    2.6   229      3.9   941.2    0.00       0    49.2
  37   20:50   48.7    40    1.5   216      3.7   941.3    0.00       0    49.1
  37   21:00   48.6    40    0.4   247      2.1   941.3    0.00       0    49.1
  37   21:10   48.5    40    1.1   216      3.9   941.3    0.00       0    49.0
  37   21:20   48.1    41    1.7   218      3.1   941.4    0.00       0    48.9
  37   21:30   47.8    42    2.2   215      3.9   941.4    0.00       0    48.9
  37   21:40   48.0    41    2.2   224      3.6   941.5    0.00       0    48.8
  37   21:50   47.8    42    2.9   229      3.8   941.4    0.00       0    48.8
  37   22:00   47.1    44    2.1   223      2.9   941.4    0.00       0    48.7
  37   22:10   45.9    46    2.8   223      3.9   941.4    0.00       0    48.7
  37   22:20   47.2    43    2.1   210      3.9   941.5    0.00       0    48.6
  37   22:30   48.1    41    1.2   216      2.6   941.4    0.00       0    48.5
  37   22:40   47.4    43    0.9   225      2.4   941.4    0.00       0    48.5
  37   22:50   46.6    44    2.3   223      3.1   941.3    0.00       0    48.4
  37   23:00   46.6    45    2.3   228      3.4   941.5    0.00       0    48.3
  37   23:10   46.7    44    2.1   226      3.6   941.4    0.00       0    48.3
  37   23:20   47.0    43    1.4   230      3.0   941.4    0.00       0    48.3
  37   23:30   46.1    46    1.3   235      2.5   941.5    0.00       0    48.2
  37   23:40   46.4    44    1.5   198      3.2   941.4    0.00       0    48.1
  37   23:50   47.2    43    1.5   202      3.1   941.3    0.00       0    48.1
  38    0:00   46.9    43    0.5   152      1.3   941.3    0.00       0    48.0
  38    0:10   47.0    44    1.0   199      2.6   941.3    0.00       0    47.9
  38    0:20   47.3    43    1.9   172      3.1   941.4    0.00       0    47.9
  38    0:30   48.7    40    2.1   161      3.4   941.4    0.00       0    47.8
  38    0:40   47.6    42    0.6   166      2.0   941.4    0.00       0    47.8
  38    0:50   47.3    42    0.7   284      2.0   941.3    0.00       0    47.8
  38    1:00   46.4    45    1.7   217      2.8   941.4    0.00       0    47.7
  38    1:10   45.5    47    2.7   193      4.1   941.4    0.00       0    47.6
  38    1:20   46.0    45    1.2   155      3.1   941.4    0.00       0    47.6
  38    1:30   45.9    45    0.6   214      2.2   941.4    0.00       0    47.5
  38    1:40   46.3    44    2.1   204      4.5   941.3    0.00       0    47.5
  38    1:50   46.2    45    2.1   194      3.7   941.3    0.00       0    47.4
  38    2:00   45.9    45    1.3   215      2.5   941.3    0.00       0    47.4
  38    2:10   45.9    45    2.5   224      4.3   941.4    0.00       0    47.3
  38    2:20   44.8    48    2.9   200      4.2   941.4    0.00       0    47.3
  38    2:30   45.5    45    2.6   227      3.8   941.4    0.00       0    47.2
  38    2:40   46.4    43    1.9   258      3.0   941.3    0.00       0    47.2
  38    2:50   46.3    43    1.5   270      2.3   941.2    0.00       0    47.1
  38    3:00   46.6    42    1.5   283      2.9   941.2    0.00       0    47.1
  38    3:10   47.0    41    1.1   273      2.3   941.1    0.00       0    47.0
  38    3:20   46.4    43    1.1   215      2.1   941.0    0.00       0    47.0
  38    3:30   45.5    44    1.3   196      2.6   941.0    0.00       0    47.0
  38    3:40   45.3    44    0.9   223      2.6   940.9    0.00       0    46.9
  38    3:50   45.6    42    0.4   292      1.8   940.8    0.00       0    46.9
  38    4:00   46.8    40    0.6   308      2.7   940.9    0.00       0    46.8
  38    4:10   46.7    40    1.6   240      2.5   941.0    0.00       0    46.8
  38    4:20   47.4    38    1.6   276      2.9   941.0    0.00       0    46.7
  38    4:30   47.0    39    1.0   262      2.6   941.0    0.00       0    46.7
  38    4:40   46.8    40    0.9   318      2.8   941.0    0.00       0    46.7
  38    4:50   45.1    44    1.2   231      2.5   941.0    0.00       0    46.6
  38    5:00   44.5    46    1.9   152      5.0   941.0    0.00       0    46.6
  38    5:10   45.4    44    1.3   236      4.2   941.0    0.00       0    46.5
  38    5:20   45.3    43    0.5   278      2.9   941.0    0.00       0    46.5
  38    5:30   43.6    48    0.6   202      2.3   941.0    0.00       0    46.4
  38    5:40   43.2    49    2.0   201      2.9   941.0    0.00       0    46.4
  38    5:50   43.8    49    0.6   205      2.1   941.1    0.00       0    46.3
  38    6:00   44.9    46    1.0   112      2.9   941.2    0.00       0    46.3
  38    6:10   44.7    47    0.9   167      2.2   941.3    0.00       0    46.2
  38    6:20   45.0    44    1.3   218      2.9   941.3    0.00       0    46.2
  38    6:30   45.6    41    1.1   234      2.7   941.4    0.00       0    46.1
  38    6:40   45.6    41    0.5   355      2.9   941.6    0.00       5    46.1
  38    6:50   45.7    39    0.2    80      1.2   941.6    0.00       8    46.1
  38    7:00   45.4    41    0.3    68      1.2   941.8    0.00      15    46.0
  38    7:10   45.7    42    1.2    30      6.1   941.9    0.00      69    46.0
  38    7:20   48.9    35    4.1    18      7.8   942.1    0.00     107    46.0
  38    7:30   48.9    38    3.0    30      6.6   942.4    0.00     140    45.9
  38    7:40   50.9    32    1.9     8      6.2   942.6    0.00     170    45.9
  38    7:50   53.0    31    1.5    66      3.4   942.8    0.00     200    45.9
  38    8:00   53.4    30    1.9     0     10.5   943.0    0.00     231    45.9
  38    8:10   54.5    27    4.6    16     10.3   943.2    0.00     263    45.9
  38    8:20   54.4    28    3.8     5      9.3   943.5    0.00     144    45.9
  38    8:30   54.6    27    4.0   359     11.5   943.7    0.00      35    45.9
  38    8:40   55.1    26    4.0   350      9.4   943.9    0.00      73    45.9
  38    8:50   55.0    27    5.0     0     10.0   944.0    0.00      37    45.9
  38    9:00   55.1    27    5.0     9     10.1   944.1    0.00      37    46.0
  38    9:10   55.8    26    4.4    14     13.7   944.1    0.00     302    46.0
  38    9:20   55.2    29    5.4    26     12.2   944.0    0.00     112    46.0
  38    9:30   56.0    26    5.6    20     11.5   944.1    0.00     429    46.1
  38    9:40   57.4    24    5.2    20     11.3   944.1    0.00     510    46.2
  38    9:50   57.6    24    5.2    25     12.6   944.3    0.00     532    46.3
  38   10:00   57.8    24    4.6    20      8.6   944.3    0.00     552    46.3
  38   10:10   57.7    26    5.0    22      9.6   944.3    0.00     570    46.5
  38   10:20   56.4    29    6.3    18     10.2   944.3    0.00     588    46.5
  38   10:30   55.8    31    6.5    23     10.7   944.4    0.00     604    46.6
  38   10:40   56.3    31    5.4    21     11.5   944.3    0.00     617    46.7
  38   10:50   57.8    29    5.0    22      8.9   944.3    0.00     628    46.8
  38   11:00   59.3    25    5.3     9     10.6   944.2    0.00     638    47.0
  38   11:10   60.4    22    5.1     9     12.1   944.1    0.00     646    47.2
  38   11:20   60.8    21    6.2    15     13.9   944.1    0.00     652    47.4
  38   11:30   61.2    22    4.3     9     11.2   944.0    0.00     657    47.7
  38   11:40   61.8    23    5.1    16     11.1   943.9    0.00     660    48.0
  38   11:50   61.4    23    6.6    22     12.4   943.8    0.00     664    48.3
  38   12:00   61.9    22    6.4    12     12.3   943.6    0.00     664    48.6
  38   12:10   62.4    21    5.2     3     10.0   943.4    0.00     660    48.9
  38   12:20   63.0    19    6.1     8     13.0   943.3    0.00     657    49.3
  38   12:30   63.8    17    6.1     5     13.5   943.1    0.00     652    49.6
  38   12:40   64.2    16    7.0     0     15.4   943.0    0.00     645    49.9
  38   12:50   64.9    16    6.3     7     14.5   942.8    0.00     637    50.3
  38   13:00   65.3    17    5.6    14     11.8   942.7    0.00     627    50.6
  38   13:10   65.4    17    6.4    12     13.0   942.7    0.00     615    50.9
  38   13:20   65.0    18    7.1    16     16.4   942.7    0.00     601    51.3
  38   13:30   65.6    18    6.6    18     13.0   942.7    0.00     586    51.5
  38   13:40   65.7    17    7.0    16     14.6   942.7    0.00     570    51.9
  38   13:50   65.9    17    7.4    18     15.1   942.6    0.00     552    52.1
  38   14:00   66.2    17    6.6    24     12.8   942.4    0.00     532    52.4

Return to Boulder City, Nevada graphs page.


Western Regional Climate Center,wrcc@dri.edu